Weather at Chicago Midway International Airport

Public forecast

Using degrees Fahrenheit for public forecast. Weather courtesy of forecast.io.

Current aviation weather report (METAR) for Chicago Midway International Airport

Retrieved 2021/07/28 23:53 UTC (26 minutes ago):

KMDW 282353Z 23010KT 10SM FEW039 SCT150 BKN250 31/22 A2994 RMK AO2 SLP127 T03060222 10322 20306 56013

Aviation forecast (TAF) for Chicago Midway International Airport

Retrieved 2021-07-29 00:39 UTC (0 seconds ago):

TAF KMDW 282337Z 2900/3006 22011KT P6SM SCT035 BKN150 TEMPO 2906/2909 35020G35KT 2SM TSRA SCT009 BKN020CB FM291200 32013G21KT P6SM SCT020 BKN150 FM291700 04012G18KT P6SM BKN025 BKN040 FM292300 03011KT P6SM SCT030 SCT250